Flight Track Log - Related Links

Times and Time Zones

All times are in EDT time to prevent confusion due to time zone crossing. See the AAY876 flight status page for this flight to view local times or setup timezone preferences in your user account.

Time Position Orientation Groundspeed Altitude Reporting Facility
EDT Latitude Longitude Course Direction KTS MPH feet Rate Location/Type
Sat 02:29:33 PM 27.9667 -82.6833 360° North 208 239 1,600  Level Tampa TRACON
Sat 02:30:28 PM 28.0333 -82.6667 12° North 273 314 2,700 2,126 Climbing Tampa TRACON
Sat 02:31:00 PM 28.5361 -82.8172 350° North  Level FlightAware Approximate
Sat 02:31:40 PM 28.1167 -82.6667 360° North 271 312 6,100  Level Tampa TRACON
Sat 02:32:00 PM 28.6407 -82.8381 350° North  Level FlightAware Approximate
Sat 02:33:00 PM 28.7580 -82.8615 350° North  Level FlightAware Approximate
Sat 02:36:44 PM 28.5510 -82.7446 346° North 364 419 17,100  Level FlightAware ADS-B
Sat 02:37:47 PM 28.6550 -82.7789 346° North 363 418 18,900 1,820 Climbing Jacksonville Center
Sat 02:38:46 PM 28.7572 -82.8025 349° North 363 418 20,800 1,765 Climbing Jacksonville Center
Sat 02:39:46 PM 28.8617 -82.8333 346° North 363 418 22,400 1,650 Climbing Jacksonville Center
Sat 02:40:46 PM 28.9681 -82.8664 345° North 376 433 24,100 1,500 Climbing Jacksonville Center
Sat 02:41:46 PM 29.0767 -82.8972 346° North 388 447 25,400 1,300 Climbing Jacksonville Center
Sat 02:42:46 PM 29.1872 -82.9283 346° North 403 464 26,700 1,300 Climbing Jacksonville Center
Sat 02:43:46 PM 29.2978 -82.9617 345° North 408 470 28,000 1,250 Climbing Jacksonville Center
Sat 02:44:46 PM 29.4147 -82.9950 346° North 418 481 29,200 1,100 Climbing Jacksonville Center
Sat 02:45:46 PM 29.5336 -83.0311 345° North 424 488 30,200 1,041 Climbing Jacksonville Center
Sat 02:51:18 PM 30.1409 -83.3003 338° Northwest 407 468 36,000 814 Climbing FlightAware ADS-B
Sat 02:52:46 PM 30.2989 -83.3761 338° Northwest 411 473 35,900 -41 Descending Jacksonville Center
Sat 02:53:46 PM 30.4033 -83.4250 338° Northwest 406 467 35,900  Level Jacksonville Center
Sat 02:54:46 PM 30.5075 -83.4736 338° Northwest 401 461 35,900  Level Jacksonville Center
Sat 02:55:46 PM 30.6117 -83.5203 339° North 401 461 35,900 50 Level Jacksonville Center
Sat 02:56:46 PM 30.7158 -83.5692 338° Northwest 401 461 36,000 50 Climbing Jacksonville Center
Sat 02:57:46 PM 30.8053 -83.6158 336° Northwest 392 451 36,000  Level Jacksonville Center
Sat 02:58:46 PM 30.9094 -83.6625 339° North 397 457 36,000  Level Jacksonville Center
Sat 02:59:46 PM 31.0133 -83.7142 337° Northwest 397 457 36,000  Level Jacksonville Center
Sat 03:00:46 PM 31.1175 -83.7636 338° Northwest 397 457 36,000  Level Jacksonville Center
Sat 03:01:46 PM 31.2175 -83.8133 337° Northwest 397 457 36,000  Level Jacksonville Center
Sat 03:02:46 PM 31.3214 -83.8631 338° Northwest 397 457 36,000  Level Jacksonville Center
Sat 03:04:05 PM 31.4669 -83.9317 338° Northwest 403 464 36,000  Level Atlanta Center
Sat 03:05:05 PM 31.5714 -83.9731 341° North 397 457 36,000  Level Atlanta Center
Sat 03:06:05 PM 31.6631 -83.9950 348° North 397 457 36,000  Level Atlanta Center
Sat 03:07:05 PM 31.7842 -84.0194 350° North 397 457 36,000  Level Atlanta Center
Sat 03:08:05 PM 31.8969 -84.0436 350° North 402 463 36,000  Level Atlanta Center
Sat 03:09:05 PM 32.0056 -84.0658 350° North 402 463 36,000  Level Atlanta Center
Sat 03:10:05 PM 32.1119 -84.0903 349° North 397 457 36,000  Level Atlanta Center
Sat 03:11:05 PM 32.2244 -84.1175 348° North 397 457 36,000  Level Atlanta Center
Sat 03:12:05 PM 32.3353 -84.1397 350° North 397 457 36,000  Level Atlanta Center
Sat 03:13:05 PM 32.4436 -84.1669 348° North 397 457 36,000  Level Atlanta Center
Sat 03:14:05 PM 32.5522 -84.1892 350° North 397 457 36,000  Level Atlanta Center
Sat 03:15:05 PM 32.6650 -84.2139 350° North 392 451 36,000  Level Atlanta Center
Sat 03:16:05 PM 32.7733 -84.2389 349° North 392 451 36,000  Level Atlanta Center
Sat 03:17:05 PM 32.8797 -84.2689 347° North 392 451 36,000  Level Atlanta Center
Sat 03:18:05 PM 32.9903 -84.2914 350° North 392 451 36,000  Level Atlanta Center
Sat 03:19:05 PM 33.0967 -84.3189 348° North 392 451 36,000  Level Atlanta Center
Sat 03:20:05 PM 33.2053 -84.3417 350° North 392 451 36,000  Level Atlanta Center
Sat 03:21:05 PM 33.3261 -84.3694 349° North 392 451 36,000  Level Atlanta Center
Sat 03:25:40 PM 33.9090 -84.5026 349° North 396 456 36,000  Level FlightAware ADS-B (KDZJ)
Sat 03:26:20 PM 33.9808 -84.5198 349° North 396 456 36,000  Level FlightAware ADS-B (KDZJ)
Sat 03:27:01 PM 34.0545 -84.5378 349° North 395 455 36,000  Level FlightAware ADS-B (KDZJ)
Sat 03:27:41 PM 34.1272 -84.5557 349° North 395 455 36,000  Level FlightAware ADS-B (KDZJ)
Sat 03:28:21 PM 34.1982 -84.5729 349° North 394 453 36,000  Level FlightAware ADS-B (KDZJ)
Sat 03:29:02 PM 34.2711 -84.5908 349° North 394 453 36,000  Level FlightAware ADS-B (KDZJ)
Sat 03:29:41 PM 34.3420 -84.6081 349° North 395 455 36,000  Level FlightAware ADS-B (KDZJ)
Sat 03:30:21 PM 34.4124 -84.6252 348° North 394 453 36,000  Level FlightAware ADS-B (KDZJ)
Sat 03:31:22 PM 34.5223 -84.6521 349° North 397 457 36,000  Level FlightAware ADS-B (KDZJ)
Sat 03:32:01 PM 34.5932 -84.6695 349° North 397 457 36,000  Level FlightAware ADS-B (KDZJ)
Sat 03:32:42 PM 34.6667 -84.6878 348° North 396 456 36,000  Level FlightAware ADS-B (KDZJ)
Sat 03:33:21 PM 34.7372 -84.7053 349° North 394 453 36,000  Level FlightAware ADS-B (KDZJ)
Sat 03:34:01 PM 34.8077 -84.7227 349° North 393 452 36,000  Level FlightAware ADS-B (KDZJ)
Sat 03:34:41 PM 34.8799 -84.7406 349° North 391 450 36,000  Level FlightAware ADS-B (KDZJ)
Sat 03:35:20 PM 34.9488 -84.7580 348° North 382 440 36,000  Level FlightAware ADS-B (KDZJ)
Sat 03:36:01 PM 35.0215 -84.7761 348° North 382 440 36,000  Level FlightAware ADS-B (KDZJ)
Sat 03:36:41 PM 35.0925 -84.7937 348° North 391 450 36,000  Level FlightAware ADS-B (KDZJ)
Sat 03:37:17 PM 35.1565 -84.8099 348° North 391 450 36,000  Level FlightAware ADS-B (KDZJ)
Sat 03:42:40 PM 34.9888 -84.7678 348° North 386 444 36,000  Level FlightAware ADS-B (KMDQ)
Sat 03:47:17 PM 36.1304 -85.0572 348° North 385 443 36,000  Level FlightAware ADS-B (KMDQ)
Sat 03:48:34 PM 36.2540 -85.0888 348° North 389 448 36,000 -13 Level FlightAware ADS-B (KMDQ)
Sat 03:54:52 PM 36.9256 -85.2631 348° North 380 437 35,900  Descending FlightAware ADS-B (EPWR / WRO)
Sat 03:57:09 PM 37.1651 -85.3261 348° North 384 442 36,000 33 Climbing FlightAware ADS-B (EPWR / WRO)
Sat 03:57:53 PM 37.2411 -85.3463 348° North 383 441 36,000  Level FlightAware ADS-B (EPWR / WRO)
Sat 03:58:37 PM 37.3179 -85.3666 348° North 383 441 36,000  Level FlightAware ADS-B (EPWR / WRO)
Sat 03:59:09 PM 37.3729 -85.3813 348° North 385 443 36,000  Level FlightAware ADS-B (EPWR / WRO)
Sat 03:59:54 PM 37.4436 -85.4003 348° North 386 444 36,000  Level FlightAware ADS-B (EPWR / WRO)
Sat 04:00:36 PM 37.5254 -85.4219 348° North 386 444 36,000  Level FlightAware ADS-B (EPWR / WRO)
Sat 04:01:08 PM 37.5813 -85.4368 348° North 387 445 36,000  Level FlightAware ADS-B (EPWR / WRO)
Sat 04:01:38 PM 37.6341 -85.4508 348° North 386 444 36,000  Level FlightAware ADS-B (EPWR / WRO)
Sat 04:02:08 PM 37.6876 -85.4651 348° North 388 447 36,000  Level FlightAware ADS-B (EPWR / WRO)
Sat 04:02:50 PM 37.7621 -85.4850 348° North 390 449 36,000  Level FlightAware ADS-B (EPWR / WRO)
Sat 04:03:25 PM 37.8229 -85.5015 348° North 392 451 36,000  Level FlightAware ADS-B (EPWR / WRO)
Sat 04:03:55 PM 37.8760 -85.5158 348° North 392 451 36,000  Level FlightAware ADS-B (EPWR / WRO)
Sat 04:04:25 PM 37.9288 -85.5300 348° North 391 450 36,000  Level FlightAware ADS-B (EPWR / WRO)
Sat 04:04:55 PM 37.9808 -85.5440 348° North 392 451 36,000  Level FlightAware ADS-B (EPWR / WRO)
Sat 04:05:40 PM 38.0624 -85.5660 348° North 390 449 36,000  Level FlightAware ADS-B (EPWR / WRO)
Sat 04:06:25 PM 38.1384 -85.5975 336° Northwest 379 436 36,000  Level FlightAware ADS-B (EPWR / WRO)
Sat 04:07:09 PM 38.2081 -85.6384 335° Northwest 378 435 36,000  Level FlightAware ADS-B (EPWR / WRO)
Sat 04:10:05 PM 38.1771 -85.6203 335° Northwest 377 434 36,000  Level FlightAware ADS-B (KCVG)
Sat 04:11:22 PM 38.5933 -85.8664 335° Northwest 376 433 36,000  Level Indianapolis Center
Sat 04:12:24 PM 38.6878 -85.9222 335° Northwest 376 433 36,000 14 Level Indianapolis Center
Sat 04:18:46 PM 39.2888 -86.3312 327° Northwest 376 433 36,100  Climbing FlightAware ADS-B
Sat 04:19:30 PM 39.3537 -86.3860 327° Northwest 373 429 36,000 -67 Descending FlightAware ADS-B
Sat 04:20:15 PM 39.4179 -86.4406 327° Northwest 370 426 36,000  Level FlightAware ADS-B
Sat 04:21:25 PM 39.5170 -86.5250 327° Northwest 370 426 36,000  Level FlightAware ADS-B
Sat 04:22:26 PM 39.6039 -86.5993 327° Northwest 369 425 36,000  Level FlightAware ADS-B
Sat 04:23:09 PM 39.6669 -86.6530 327° Northwest 370 426 36,000  Level FlightAware ADS-B
Sat 04:27:41 PM 40.0475 -86.9817 322° Northwest 368 423 36,000  Level FlightAware ADS-B
Sat 04:27:55 PM 40.0706 -87.0070 313° West 362 417 36,000  Level FlightAware ADS-B
Sat 04:28:42 PM 40.1207 -87.0756 314° West 363 418 36,000  Level FlightAware ADS-B
Sat 04:29:32 PM 40.1736 -87.1469 314° West 364 419 36,000  Level FlightAware ADS-B
Sat 04:30:07 PM 40.2247 -87.2166 314° West 363 418 36,000  Level FlightAware ADS-B
Sat 04:30:41 PM 40.2642 -87.2704 314° West 364 419 36,000  Level FlightAware ADS-B
Sat 04:31:22 PM 40.3089 -87.3314 314° West 364 419 36,000  Level FlightAware ADS-B
Sat 04:31:52 PM 40.3462 -87.3827 314° West 362 417 36,000 -429 Level FlightAware ADS-B
Sat 04:32:32 PM 40.3922 -87.4454 314° West 359 413 35,500 -900 Descending FlightAware ADS-B
Sat 04:33:12 PM 40.4390 -87.5098 314° West 368 423 34,800 -1,029 Descending FlightAware ADS-B
Sat 04:33:42 PM 40.4738 -87.5580 314° West 371 427 34,300 -1,000 Descending FlightAware ADS-B
Sat 04:34:18 PM 40.5144 -87.6140 314° West 374 430 33,700 -943 Descending FlightAware ADS-B
Sat 04:34:52 PM 40.5551 -87.6702 314° West 371 427 33,200 -938 Descending FlightAware ADS-B
Sat 04:35:22 PM 40.5927 -87.7224 313° West 371 427 32,700 -1,023 Descending FlightAware ADS-B
Sat 04:36:20 PM 40.6616 -87.8182 313° West 369 425 31,700 -1,000 Descending FlightAware ADS-B
Sat 04:36:52 PM 40.6986 -87.8698 313° West 368 423 31,200 -968 Descending FlightAware ADS-B
Sat 04:37:22 PM 40.7331 -87.9177 313° West 360 414 30,700 -1,043 Descending FlightAware ADS-B
Sat 04:38:01 PM 40.7777 -87.9801 313° West 357 411 30,000 -1,029 Descending FlightAware ADS-B
Sat 04:38:32 PM 40.8125 -88.0289 313° West 357 411 29,500 -984 Descending FlightAware ADS-B
Sat 04:39:02 PM 40.8464 -88.0764 313° West 355 409 29,000 -900 Descending FlightAware ADS-B
Sat 04:39:32 PM 40.8800 -88.1234 313° West 353 406 28,600 -938 Descending FlightAware ADS-B
Sat 04:40:06 PM 40.8933 -88.1418 313° West 351 404 28,000 -1,059 Descending FlightAware ADS-B
Sat 04:40:40 PM 40.9561 -88.2305 313° West 348 400 27,400 -1,000 Descending FlightAware ADS-B
Sat 04:41:12 PM 40.9907 -88.2793 313° West 345 397 26,900 -917 Descending FlightAware ADS-B
Sat 04:41:52 PM 41.0344 -88.3412 313° West 344 396 26,300 -987 Descending FlightAware ADS-B
Sat 04:42:31 PM 41.0766 -88.4013 313° West 340 391 25,600 -1,029 Descending FlightAware ADS-B
Sat 04:43:02 PM 41.1101 -88.4487 313° West 339 390 25,100 -984 Descending FlightAware ADS-B
Sat 04:43:32 PM 41.1416 -88.4936 313° West 338 389 24,600 -1,583 Descending FlightAware ADS-B
Sat 04:44:14 PM 41.1864 -88.5576 313° West 334 384 23,200 -2,308 Descending FlightAware ADS-B
Sat 04:44:50 PM 41.2245 -88.6120 313° West 335 386 21,600 -2,400 Descending FlightAware ADS-B
Sat 04:45:44 PM 41.2806 -88.6921 313° West 328 377 19,600 -2,143 Descending FlightAware ADS-B
Sat 04:46:14 PM 41.3114 -88.7365 313° West 326 375 18,600 -2,000 Descending FlightAware ADS-B
Sat 04:46:44 PM 41.3403 -88.7779 313° West 326 375 17,600 -1,700 Descending FlightAware ADS-B
Sat 04:47:14 PM 41.3736 -88.8257 313° West 315 362 16,900 -700 Descending FlightAware ADS-B
Sat 04:47:44 PM 41.3918 -88.8516 313° West 310 357 16,900  Level FlightAware ADS-B
Sat 04:48:23 PM 41.4383 -88.9187 313° West 296 341 16,900  Level FlightAware ADS-B
Sat 04:48:54 PM 41.4694 -88.9636 313° West 294 338 16,900  Level FlightAware ADS-B
Sat 04:49:04 PM 41.4724 -88.9682 307° West 292 336 16,900 -214 Level FlightAware ADS-B
Sat 04:49:22 PM 41.4850 -89.0085 288° West 293 337 16,800 -286 Descending FlightAware ADS-B
Sat 04:49:25 PM 41.4850 -89.0121 269° West 294 338 16,800 -750 Level FlightAware ADS-B
Sat 04:49:30 PM 41.4850 -89.0085 288° West 293 337 16,700 -750 Descending FlightAware ADS-B
Sat 04:49:33 PM 41.4847 -89.0244 265° West 294 338 16,700 -2,833 Level FlightAware ADS-B
Sat 04:50:06 PM 41.4795 -89.0883 264° West 304 350 15,000 -2,348 Descending FlightAware ADS-B
Sat 04:50:42 PM 41.4763 -89.1560 279° West 307 353 14,000 -1,179 Descending FlightAware ADS-B
Sat 04:51:02 PM 41.4851 -89.1910 305° West 295 339 13,900 -188 Descending FlightAware ADS-B
Sat 04:51:14 PM 41.4957 -89.2076 321° Northwest 305 351 13,900 -960 Level FlightAware ADS-B
Sat 04:51:27 PM 41.5103 -89.2199 338° Northwest 309 356 13,500 -1,176 Descending FlightAware ADS-B
Sat 04:52:05 PM 41.5603 -89.2421 343° North 296 341 12,900 -493 Descending FlightAware ADS-B
Sat 04:52:40 PM 41.5903 -89.2543 342° North 273 314 12,900  Level FlightAware ADS-B
Sat 04:53:14 PM 41.6472 -89.2790 342° North 273 314 12,900 -85 Level FlightAware ADS-B
Sat 04:53:51 PM 41.6918 -89.2985 348° North 274 315 12,800 -941 Descending FlightAware ADS-B
Sat 04:54:05 PM 41.6472 -89.2790 342° North 274 315 12,100 -1,950 Descending FlightAware ADS-B
Sat 04:54:31 PM 41.7444 -89.2918 11° North 296 341 11,500 -1,500 Descending FlightAware ADS-B
Sat 04:55:21 PM 41.7978 -89.2825 11° North 291 335 10,200 -2,250 Descending Chicago Center
Sat 04:56:23 PM 41.8800 -89.2689 North 292 336 7,300 -2,516 Descending Chicago Center
Sat 04:57:25 PM 41.9728 -89.2808 355° North 280 322 5,000 -1,694 Descending Chicago Center
Sat 04:58:27 PM 42.0456 -89.2900 355° North 270 311 3,800 -919 Descending Chicago Center
Sat 04:59:29 PM 42.1042 -89.2753 11° North 244 281 3,100 -484 Descending Chicago Center
Sat 05:00:31 PM 42.1558 -89.2294 33° Northeast 223 257 2,800 -290 Descending Chicago Center
Sat 05:02:00 PM 42.1833 -89.0833 20° North  Level FlightAware Approximate

Login

Don't have an account? Register now (free) for customized features, flight alerts, and more!